createdAt,value
2017-05-27T00:00:09.115Z,72.50
2017-05-27T00:02:36.013Z,71.90
2017-05-27T00:05:03.325Z,71.00
2017-05-27T00:07:30.244Z,71.20
2017-05-27T00:09:57.158Z,72.20
2017-05-27T00:12:24.478Z,71.60
2017-05-27T00:14:51.404Z,70.90
2017-05-27T00:17:18.293Z,71.10
2017-05-27T00:19:45.633Z,71.90
2017-05-27T00:22:12.542Z,73.50
2017-05-27T00:24:39.452Z,73.40
2017-05-27T00:27:06.724Z,73.10
2017-05-27T00:29:33.652Z,71.80
2017-05-27T00:32:00.559Z,73.80
2017-05-27T00:34:27.907Z,73.30
2017-05-27T00:36:54.818Z,73.10
2017-05-27T00:39:21.719Z,74.00
2017-05-27T00:41:49.056Z,74.20
2017-05-27T00:44:15.988Z,75.40
2017-05-27T00:46:42.912Z,76.70
2017-05-27T00:49:10.286Z,75.00
2017-05-27T00:51:37.692Z,76.20
2017-05-27T00:54:04.597Z,78.20
2017-05-27T00:56:31.884Z,75.90
2017-05-27T00:58:58.815Z,74.70
2017-05-27T01:01:25.720Z,73.50
2017-05-27T01:03:52.940Z,75.30
2017-05-27T01:06:19.837Z,75.30
2017-05-27T01:08:46.726Z,75.70
2017-05-27T01:11:14.434Z,74.00
2017-05-27T01:13:41.324Z,74.50
2017-05-27T01:16:08.427Z,74.80
2017-05-27T01:18:35.701Z,75.00
2017-05-27T01:21:02.604Z,75.40
2017-05-27T01:23:29.520Z,76.10
2017-05-27T01:25:56.813Z,77.10
2017-05-27T01:28:23.784Z,76.30
2017-05-27T01:30:50.732Z,75.70
2017-05-27T01:33:18.065Z,75.50
2017-05-27T01:35:44.953Z,74.70
2017-05-27T01:38:11.876Z,75.40
2017-05-27T01:40:39.227Z,75.80
2017-05-27T01:43:06.144Z,75.90
2017-05-27T01:45:33.092Z,76.10
2017-05-27T01:48:00.472Z,76.60
2017-05-27T01:50:27.405Z,77.00
2017-05-27T01:52:54.313Z,76.10
2017-05-27T01:55:21.560Z,75.50
2017-05-27T01:57:48.466Z,75.50
2017-05-27T02:00:15.360Z,75.40
2017-05-27T02:02:42.668Z,75.10
2017-05-27T02:05:09.585Z,76.10
2017-05-27T02:07:37.678Z,75.80
2017-05-27T02:10:05.135Z,77.00
2017-05-27T02:12:32.063Z,76.80
2017-05-27T02:14:58.977Z,76.30
2017-05-27T02:17:26.264Z,76.30
2017-05-27T02:19:53.168Z,76.60
2017-05-27T02:22:20.084Z,76.40
2017-05-27T02:24:47.425Z,76.00
2017-05-27T02:27:14.336Z,76.20
2017-05-27T02:29:41.224Z,76.50
2017-05-27T02:32:08.564Z,76.40
2017-05-27T02:34:35.460Z,76.50
2017-05-27T02:37:02.359Z,77.30
2017-05-27T02:39:29.604Z,76.50
2017-05-27T02:41:56.543Z,77.50
2017-05-27T02:44:23.442Z,76.40
2017-05-27T02:46:50.704Z,77.00
2017-05-27T02:49:18.129Z,77.70
2017-05-27T02:51:45.050Z,78.20
2017-05-27T02:54:12.392Z,78.20
2017-05-27T02:56:39.315Z,78.90
2017-05-27T02:59:06.245Z,79.00
2017-05-27T03:01:33.552Z,77.90
2017-05-27T03:04:00.487Z,78.10
2017-05-27T03:06:27.375Z,77.80
2017-05-27T03:08:54.685Z,78.50
2017-05-27T03:11:21.639Z,78.40
2017-05-27T03:13:48.581Z,78.50
2017-05-27T03:16:15.828Z,78.50
2017-05-27T03:18:42.743Z,78.30
2017-05-27T03:21:09.668Z,78.00
2017-05-27T03:23:36.973Z,78.50
2017-05-27T03:26:03.921Z,78.60
2017-05-27T03:28:30.840Z,79.20
2017-05-27T03:30:58.206Z,79.00
2017-05-27T03:33:25.133Z,78.70
2017-05-27T03:35:52.061Z,78.20
2017-05-27T03:38:19.256Z,79.30
2017-05-27T03:40:46.167Z,78.90
2017-05-27T03:43:13.087Z,79.10
2017-05-27T03:45:40.476Z,79.50
2017-05-27T03:48:07.409Z,79.30
2017-05-27T03:50:34.348Z,79.50
2017-05-27T03:53:01.713Z,79.60
2017-05-27T03:55:28.646Z,79.40
2017-05-27T03:57:55.566Z,78.80
2017-05-27T04:00:22.985Z,79.80
2017-05-27T04:02:49.881Z,79.70
2017-05-27T04:05:17.490Z,79.30
2017-05-27T04:07:44.740Z,79.40
2017-05-27T04:10:11.655Z,79.40
2017-05-27T04:12:38.553Z,80.40
2017-05-27T04:15:05.852Z,80.50
2017-05-27T04:17:32.812Z,80.60
2017-05-27T04:19:59.753Z,80.30
2017-05-27T04:22:27.074Z,80.30
2017-05-27T04:24:53.984Z,81.10
2017-05-27T04:27:20.888Z,80.30
2017-05-27T04:29:48.328Z,80.20
2017-05-27T04:32:15.297Z,79.90
2017-05-27T04:34:42.219Z,79.80
2017-05-27T04:37:09.560Z,80.70
2017-05-27T04:39:36.481Z,81.10
2017-05-27T04:42:03.393Z,80.40
2017-05-27T04:44:30.678Z,80.30
2017-05-27T04:46:57.611Z,80.10
2017-05-27T04:49:24.537Z,80.20
2017-05-27T04:51:51.929Z,79.60
2017-05-27T04:54:18.848Z,80.80
2017-05-27T04:56:45.780Z,80.50
2017-05-27T04:59:13.060Z,81.20
2017-05-27T05:01:39.970Z,80.90
2017-05-27T05:04:06.958Z,80.80
2017-05-27T05:06:34.305Z,81.20
2017-05-27T05:09:01.229Z,81.70
2017-05-27T05:11:28.667Z,82.00
2017-05-27T05:13:55.959Z,82.70
2017-05-27T05:16:22.889Z,81.90
2017-05-27T05:18:49.815Z,81.60
2017-05-27T05:21:17.197Z,81.30
2017-05-27T05:23:44.137Z,81.00
2017-05-27T05:26:11.069Z,80.40
2017-05-27T05:28:38.428Z,80.10
2017-05-27T05:31:05.351Z,80.60
2017-05-27T05:33:32.280Z,78.80
2017-05-27T05:35:59.545Z,78.70
2017-05-27T05:38:26.460Z,79.30
2017-05-27T05:40:53.449Z,79.90
2017-05-27T05:43:20.811Z,79.30
2017-05-27T05:45:47.715Z,79.50
2017-05-27T05:48:14.643Z,79.50
2017-05-27T05:50:42.024Z,79.30
2017-05-27T05:53:08.956Z,78.70
2017-05-27T05:55:35.867Z,79.10
2017-05-27T05:58:04.195Z,79.70
2017-05-27T06:00:31.113Z,79.40
2017-05-27T06:02:58.033Z,78.50
2017-05-27T06:05:25.297Z,75.00
2017-05-27T06:07:52.201Z,76.20
2017-05-27T06:10:19.125Z,75.30
2017-05-27T06:12:46.457Z,74.50
2017-05-27T06:15:13.366Z,74.60
2017-05-27T06:17:40.294Z,74.20
2017-05-27T06:20:07.607Z,75.10
2017-05-27T06:22:34.544Z,73.00
2017-05-27T06:25:01.458Z,73.00
2017-05-27T06:27:28.754Z,73.90
2017-05-27T06:29:55.717Z,74.20
2017-05-27T06:32:22.645Z,74.50
2017-05-27T06:34:49.973Z,69.80
2017-05-27T06:37:16.904Z,72.50
2017-05-27T06:39:43.822Z,68.60
2017-05-27T06:42:11.318Z,67.90
2017-05-27T06:44:38.230Z,67.90
2017-05-27T06:47:05.136Z,68.20
2017-05-27T06:49:32.440Z,68.90
2017-05-27T06:51:59.362Z,69.10
2017-05-27T06:54:26.441Z,70.50
2017-05-27T06:56:53.773Z,69.60
2017-05-27T06:59:20.720Z,69.40
2017-05-27T07:01:47.674Z,68.60
2017-05-27T07:04:15.040Z,69.80
2017-05-27T07:06:41.955Z,70.60
2017-05-27T07:09:08.874Z,69.80
2017-05-27T07:11:36.248Z,68.20
2017-05-27T07:14:03.193Z,67.50
2017-05-27T07:16:30.112Z,67.00
2017-05-27T07:18:57.390Z,66.00
2017-05-27T07:21:24.330Z,67.10
2017-05-27T07:23:51.274Z,66.20
2017-05-27T07:26:18.617Z,66.80
2017-05-27T07:28:45.540Z,66.80
2017-05-27T07:31:12.493Z,66.50
2017-05-27T07:33:39.879Z,65.70
2017-05-27T07:36:06.788Z,67.90
2017-05-27T07:38:33.725Z,66.60
2017-05-27T07:41:01.115Z,66.60
2017-05-27T07:43:28.089Z,66.70
2017-05-27T07:45:55.024Z,67.10
2017-05-27T07:48:22.352Z,68.00
2017-05-27T07:50:49.265Z,65.30
2017-05-27T07:53:16.211Z,66.60
2017-05-27T07:55:43.497Z,66.10
2017-05-27T07:58:10.408Z,66.40
2017-05-27T08:00:37.345Z,65.70
2017-05-27T08:03:04.612Z,66.80
2017-05-27T08:05:31.553Z,66.50
2017-05-27T08:07:58.462Z,64.90
2017-05-27T08:10:25.769Z,63.10
2017-05-27T08:12:52.714Z,63.90
2017-05-27T08:15:19.643Z,63.50
2017-05-27T08:17:47.000Z,64.30
2017-05-27T08:20:13.911Z,60.60
2017-05-27T08:22:40.821Z,60.80
2017-05-27T08:25:08.093Z,62.20
2017-05-27T08:27:34.989Z,63.20
2017-05-27T08:30:01.997Z,62.10
2017-05-27T08:32:45.250Z,61.70
2017-05-27T08:35:12.228Z,62.70
2017-05-27T08:37:39.137Z,61.70
2017-05-27T08:40:06.461Z,60.30
2017-05-27T08:42:33.384Z,59.40
2017-05-27T08:45:00.294Z,59.50
2017-05-27T08:47:27.619Z,60.00
2017-05-27T08:49:54.546Z,58.70
2017-05-27T08:52:21.458Z,58.70
2017-05-27T08:54:48.740Z,59.40
2017-05-27T08:57:15.692Z,58.00
2017-05-27T08:59:42.626Z,60.10
2017-05-27T09:02:09.992Z,60.30
2017-05-27T09:04:36.907Z,59.70
2017-05-27T09:07:03.837Z,57.00
2017-05-27T09:09:31.129Z,59.80
2017-05-27T09:11:58.035Z,58.40
2017-05-27T09:14:24.968Z,59.60
2017-05-27T09:16:52.237Z,59.30
2017-05-27T09:19:19.168Z,57.60
2017-05-27T09:21:46.070Z,56.10
2017-05-27T09:24:13.380Z,57.10
2017-05-27T09:26:40.321Z,57.60
2017-05-27T09:29:07.240Z,57.30
2017-05-27T09:31:34.613Z,56.90
2017-05-27T09:34:01.547Z,58.10
2017-05-27T09:36:28.465Z,57.20
2017-05-27T09:38:55.728Z,57.00
2017-05-27T09:41:22.644Z,57.10
2017-05-27T09:43:49.550Z,56.70
2017-05-27T09:46:16.912Z,56.50
2017-05-27T09:48:43.826Z,55.30
2017-05-27T09:51:10.755Z,56.10
2017-05-27T09:53:38.140Z,56.90
2017-05-27T09:56:05.112Z,56.20
2017-05-27T09:58:32.032Z,54.90
2017-05-27T10:00:59.352Z,54.50
2017-05-27T10:03:26.279Z,54.80
2017-05-27T10:05:53.227Z,54.30
2017-05-27T10:08:20.599Z,55.00
2017-05-27T10:10:47.528Z,54.80
2017-05-27T10:13:13.728Z,54.80
2017-05-27T10:15:41.033Z,53.10
2017-05-27T10:18:07.945Z,54.40
2017-05-27T10:20:34.884Z,52.70
2017-05-27T10:23:02.149Z,53.00
2017-05-27T10:25:29.062Z,53.40
2017-05-27T10:27:55.987Z,53.80
2017-05-27T10:30:23.282Z,52.20
2017-05-27T10:32:50.224Z,51.90
2017-05-27T10:35:17.141Z,52.50
2017-05-27T10:37:44.432Z,51.00
2017-05-27T10:40:11.332Z,52.80
2017-05-27T10:42:38.346Z,52.40
2017-05-27T10:45:05.649Z,51.90
2017-05-27T10:47:32.631Z,52.80
2017-05-27T10:49:59.615Z,52.30
2017-05-27T10:52:27.112Z,53.00
2017-05-27T10:54:54.024Z,53.40
2017-05-27T10:57:20.944Z,51.30
2017-05-27T10:59:49.123Z,51.80
2017-05-27T11:02:16.045Z,51.90
2017-05-27T11:04:42.929Z,52.70
2017-05-27T11:07:10.308Z,50.60
2017-05-27T11:09:37.226Z,51.50
2017-05-27T11:12:04.182Z,51.50
2017-05-27T11:14:31.643Z,49.70
2017-05-27T11:16:58.615Z,52.40
2017-05-27T11:19:25.557Z,51.00
2017-05-27T11:21:52.981Z,51.30
2017-05-27T11:24:19.900Z,52.00
2017-05-27T11:26:46.804Z,52.20
2017-05-27T11:29:14.098Z,53.00
2017-05-27T11:31:41.004Z,51.70
2017-05-27T11:34:07.928Z,50.60
2017-05-27T11:36:35.248Z,50.10
2017-05-27T11:39:02.216Z,51.00
2017-05-27T11:41:29.149Z,50.10
2017-05-27T11:43:56.440Z,50.10
2017-05-27T11:46:23.346Z,50.40
2017-05-27T11:48:50.300Z,48.80
2017-05-27T11:51:17.609Z,51.20
2017-05-27T11:53:44.529Z,51.50
2017-05-27T11:56:11.442Z,48.10
2017-05-27T11:58:38.808Z,48.20
2017-05-27T12:01:05.771Z,47.90
2017-05-27T12:03:32.738Z,49.20
2017-05-27T12:06:00.098Z,48.60
2017-05-27T12:08:27.008Z,48.50
2017-05-27T12:10:53.947Z,50.00
2017-05-27T12:13:21.244Z,47.60
2017-05-27T12:15:48.170Z,49.40
2017-05-27T12:18:15.089Z,46.30
2017-05-27T12:20:42.454Z,48.20
2017-05-27T12:23:09.349Z,47.20
2017-05-27T12:25:36.292Z,47.20
2017-05-27T12:28:03.606Z,47.20
2017-05-27T12:30:30.542Z,47.20
2017-05-27T12:32:57.478Z,49.10
2017-05-27T12:35:24.979Z,47.00
2017-05-27T12:37:51.947Z,48.00
2017-05-27T12:40:19.008Z,48.40
2017-05-27T12:42:46.398Z,48.00
2017-05-27T12:45:13.423Z,47.50
2017-05-27T12:47:40.397Z,47.30
2017-05-27T12:50:07.822Z,48.00
2017-05-27T12:52:34.733Z,47.00
2017-05-27T12:55:01.878Z,46.80
2017-05-27T12:57:29.148Z,45.50
2017-05-27T12:59:56.060Z,46.50
2017-05-27T13:02:22.979Z,45.60
2017-05-27T13:04:50.241Z,45.60
2017-05-27T13:07:17.149Z,44.60
2017-05-27T13:09:44.084Z,45.20
2017-05-27T13:12:11.355Z,46.20
2017-05-27T13:14:38.258Z,43.90
2017-05-27T13:17:05.192Z,45.70
2017-05-27T13:19:32.484Z,45.00
2017-05-27T13:21:59.437Z,44.40
2017-05-27T13:24:26.364Z,43.30
2017-05-27T13:26:53.685Z,43.60
2017-05-27T13:29:20.644Z,42.70
2017-05-27T13:31:47.587Z,41.70
2017-05-27T13:34:15.040Z,44.10
2017-05-27T13:36:42.006Z,42.60
2017-05-27T13:39:08.926Z,40.10
2017-05-27T13:41:36.295Z,41.20
2017-05-27T13:44:03.203Z,41.00
2017-05-27T13:46:30.151Z,42.20
2017-05-27T13:48:57.514Z,39.40
2017-05-27T13:51:24.471Z,39.10
2017-05-27T13:53:51.433Z,39.30
2017-05-27T13:56:18.768Z,38.40
2017-05-27T13:58:45.710Z,37.30
2017-05-27T14:01:12.638Z,37.20
2017-05-27T14:03:39.987Z,36.60
2017-05-27T14:06:06.912Z,36.40
2017-05-27T14:08:33.836Z,36.10
2017-05-27T14:11:01.133Z,37.00
2017-05-27T14:13:28.071Z,35.50
2017-05-27T14:15:54.993Z,35.20
2017-05-27T14:18:22.260Z,35.60
2017-05-27T14:20:49.170Z,35.10
2017-05-27T14:23:16.076Z,34.40
2017-05-27T14:25:43.384Z,33.20
2017-05-27T14:28:10.297Z,33.20
2017-05-27T14:30:37.223Z,34.10
2017-05-27T14:33:04.512Z,34.40
2017-05-27T14:35:31.466Z,32.70
2017-05-27T14:37:58.374Z,32.00
2017-05-27T14:40:25.652Z,30.00
2017-05-27T14:42:52.555Z,31.10
2017-05-27T14:45:19.496Z,31.00
2017-05-27T14:47:46.780Z,30.20
2017-05-27T14:50:13.746Z,32.20
2017-05-27T14:52:40.691Z,30.40
2017-05-27T14:55:08.143Z,30.40
2017-05-27T14:57:35.081Z,29.60
2017-05-27T15:00:02.013Z,29.00
2017-05-27T15:02:29.324Z,29.00
2017-05-27T15:04:56.250Z,27.60
2017-05-27T15:07:23.175Z,26.90
2017-05-27T15:09:50.498Z,25.50
2017-05-27T15:12:17.404Z,25.60
2017-05-27T15:14:44.310Z,25.00
2017-05-27T15:17:11.568Z,24.70
2017-05-27T15:19:38.596Z,24.70
2017-05-27T15:22:05.533Z,24.10
2017-05-27T15:24:32.882Z,23.90
2017-05-27T15:26:59.805Z,24.20
2017-05-27T15:29:27.331Z,22.90
2017-05-27T15:31:54.640Z,22.20
2017-05-27T15:34:21.682Z,22.10
2017-05-27T15:36:48.619Z,23.00
2017-05-27T15:39:15.878Z,21.50
2017-05-27T15:41:42.825Z,22.00
2017-05-27T15:44:09.761Z,22.10
2017-05-27T15:46:37.112Z,22.40
2017-05-27T15:49:04.040Z,22.40
2017-05-27T15:51:30.996Z,21.90
2017-05-27T15:53:58.340Z,21.40
2017-05-27T15:56:25.276Z,21.60
2017-05-27T15:58:52.216Z,21.00
2017-05-27T16:01:19.490Z,21.00
2017-05-27T16:03:46.427Z,19.70
2017-05-27T16:06:13.338Z,21.90
2017-05-27T16:08:40.608Z,20.60
2017-05-27T16:11:07.543Z,21.40
2017-05-27T16:13:34.467Z,20.30
2017-05-27T16:16:01.769Z,19.60
2017-05-27T16:18:28.677Z,21.60
2017-05-27T16:20:55.640Z,19.90
2017-05-27T16:23:22.975Z,20.60
2017-05-27T16:25:49.885Z,21.20
2017-05-27T16:28:16.805Z,21.10
2017-05-27T16:30:44.141Z,21.60
2017-05-27T16:33:11.064Z,20.80
2017-05-27T16:35:38.119Z,20.10
2017-05-27T16:38:05.465Z,19.50
2017-05-27T16:40:32.380Z,19.90
2017-05-27T16:42:59.298Z,20.00
2017-05-27T16:45:26.600Z,19.50
2017-05-27T16:47:53.519Z,19.70
2017-05-27T16:50:20.491Z,20.20
2017-05-27T16:52:47.855Z,19.80
2017-05-27T16:55:14.890Z,19.80
2017-05-27T16:57:41.822Z,19.80
2017-05-27T17:00:09.608Z,19.70
2017-05-27T17:02:36.520Z,20.00
2017-05-27T17:05:03.482Z,20.70
2017-05-27T17:07:30.811Z,20.60
2017-05-27T17:09:57.739Z,19.80
2017-05-27T17:12:24.671Z,20.20
2017-05-27T17:14:51.980Z,20.70
2017-05-27T17:17:25.545Z,19.90
2017-05-27T17:19:54.468Z,20.60
2017-05-27T17:22:21.393Z,20.60
2017-05-27T17:24:48.289Z,20.80
2017-05-27T17:27:15.580Z,21.80
2017-05-27T17:29:42.536Z,21.70
2017-05-27T17:32:09.469Z,21.90
2017-05-27T17:34:36.753Z,22.50
2017-05-27T17:37:03.768Z,22.10
2017-05-27T17:39:30.671Z,21.70
2017-05-27T17:41:57.944Z,21.50
2017-05-27T17:44:24.892Z,23.20
2017-05-27T17:46:51.889Z,23.00
2017-05-27T17:49:19.987Z,23.60
2017-05-27T17:51:46.964Z,23.90
2017-05-27T17:54:13.892Z,23.60
2017-05-27T17:56:41.241Z,24.60
2017-05-27T17:59:08.197Z,24.70
2017-05-27T18:01:35.123Z,23.60
2017-05-27T18:04:10.180Z,25.90
2017-05-27T18:06:37.086Z,25.60
2017-05-27T18:09:04.059Z,26.20
2017-05-27T18:11:31.388Z,26.40
2017-05-27T18:13:58.360Z,27.10
2017-05-27T18:16:25.299Z,27.60
2017-05-27T18:18:52.656Z,27.50
2017-05-27T18:21:19.574Z,29.20
2017-05-27T18:23:46.521Z,29.30
2017-05-27T18:26:13.893Z,29.50
2017-05-27T18:28:40.837Z,32.60
2017-05-27T18:31:07.775Z,32.10
2017-05-27T18:33:35.136Z,32.20
2017-05-27T18:36:02.096Z,30.10
2017-05-27T18:38:29.047Z,32.80
2017-05-27T18:40:56.368Z,33.40
2017-05-27T18:43:23.319Z,32.90
2017-05-27T18:45:50.257Z,32.00
2017-05-27T18:48:17.544Z,30.80
2017-05-27T18:50:44.441Z,33.30
2017-05-27T18:53:11.854Z,33.20
2017-05-27T18:55:39.147Z,33.30
2017-05-27T18:58:06.065Z,35.50
2017-05-27T19:00:33.001Z,35.30
2017-05-27T19:03:00.296Z,36.20
2017-05-27T19:05:27.237Z,37.70
2017-05-27T19:07:54.168Z,38.80
2017-05-27T19:10:21.631Z,40.60
2017-05-27T19:12:48.560Z,40.70
2017-05-27T19:15:15.464Z,40.70
2017-05-27T19:17:42.857Z,40.60
2017-05-27T19:20:09.801Z,42.50
2017-05-27T19:22:36.716Z,42.40
2017-05-27T19:25:03.992Z,42.70
2017-05-27T19:27:30.940Z,41.80
2017-05-27T19:29:57.869Z,42.20
2017-05-27T19:32:25.135Z,43.90
2017-05-27T19:34:52.072Z,45.20
2017-05-27T19:37:18.989Z,44.70
2017-05-27T19:39:46.377Z,44.60
2017-05-27T19:42:13.296Z,45.60
2017-05-27T19:44:40.241Z,45.20
2017-05-27T19:47:07.631Z,45.20
2017-05-27T19:49:34.580Z,45.30
2017-05-27T19:52:01.477Z,45.60
2017-05-27T19:54:28.828Z,48.30
2017-05-27T19:56:55.772Z,49.70
2017-05-27T19:59:22.825Z,49.50
2017-05-27T20:01:50.185Z,49.10
2017-05-27T20:04:17.111Z,50.30
2017-05-27T20:06:44.054Z,47.90
2017-05-27T20:09:11.405Z,50.20
2017-05-27T20:11:38.313Z,48.70
2017-05-27T20:14:06.000Z,49.00
2017-05-27T20:16:33.380Z,50.90
2017-05-27T20:19:00.290Z,51.10
2017-05-27T20:21:27.205Z,49.80
2017-05-27T20:23:54.501Z,50.00
2017-05-27T20:26:21.420Z,48.60
2017-05-27T20:28:48.372Z,48.50
2017-05-27T20:31:16.280Z,48.60
2017-05-27T20:33:43.217Z,48.50
2017-05-27T20:36:10.138Z,49.10
2017-05-27T20:38:37.500Z,50.60
2017-05-27T20:41:05.096Z,49.30
2017-05-27T20:43:31.993Z,49.90
2017-05-27T20:45:59.361Z,51.50
2017-05-27T20:48:26.313Z,50.70
2017-05-27T20:50:53.257Z,49.90
2017-05-27T20:53:20.589Z,50.00
2017-05-27T20:55:47.625Z,48.70
2017-05-27T20:58:14.556Z,51.30
2017-05-27T21:00:41.912Z,50.00
2017-05-27T21:03:08.876Z,50.50
2017-05-27T21:05:35.909Z,49.10
2017-05-27T21:08:03.363Z,49.00
2017-05-27T21:10:30.312Z,48.50
2017-05-27T21:12:57.413Z,48.60
2017-05-27T21:15:24.693Z,49.20
2017-05-27T21:17:51.656Z,48.90
2017-05-27T21:20:18.608Z,48.20
2017-05-27T21:22:45.945Z,49.00
2017-05-27T21:25:12.863Z,50.10
2017-05-27T21:27:39.796Z,51.10
2017-05-27T21:30:07.181Z,50.30
2017-05-27T21:32:34.104Z,51.20
2017-05-27T21:35:01.060Z,51.00
2017-05-27T21:37:28.392Z,49.80
2017-05-27T21:39:55.329Z,49.90
2017-05-27T21:42:22.301Z,49.60
2017-05-27T21:44:49.718Z,50.30
2017-05-27T21:47:16.644Z,50.40
2017-05-27T21:49:43.552Z,50.10
2017-05-27T21:52:10.904Z,50.40
2017-05-27T21:54:37.837Z,52.50
2017-05-27T21:57:04.810Z,51.90
2017-05-27T21:59:32.133Z,52.10
2017-05-27T22:01:59.072Z,51.20
2017-05-27T22:04:26.017Z,49.90
2017-05-27T22:06:53.358Z,50.30
2017-05-27T22:09:20.284Z,51.50
2017-05-27T22:11:47.254Z,52.20
2017-05-27T22:14:14.592Z,52.30
2017-05-27T22:16:41.493Z,53.00
2017-05-27T22:19:08.377Z,51.10
2017-05-27T22:21:35.643Z,52.00
2017-05-27T22:24:02.594Z,52.00
2017-05-27T22:26:29.532Z,51.40
2017-05-27T22:28:56.786Z,52.00
2017-05-27T22:31:23.817Z,53.20
2017-05-27T22:33:50.810Z,52.70
2017-05-27T22:36:18.101Z,52.60
2017-05-27T22:38:44.981Z,51.30
2017-05-27T22:41:11.889Z,52.60
2017-05-27T22:43:39.248Z,52.70
2017-05-27T22:46:06.180Z,52.50
2017-05-27T22:48:33.132Z,51.80
2017-05-27T22:51:00.487Z,50.80
2017-05-27T22:53:27.425Z,51.90
2017-05-27T22:55:54.329Z,52.00
2017-05-27T22:58:21.624Z,52.40
2017-05-27T23:00:48.520Z,52.20
2017-05-27T23:03:15.440Z,53.20
2017-05-27T23:05:42.764Z,52.60
2017-05-27T23:08:09.662Z,54.10
2017-05-27T23:10:36.644Z,51.50
2017-05-27T23:13:03.980Z,51.10
2017-05-27T23:15:30.915Z,53.20
2017-05-27T23:17:57.837Z,53.20
2017-05-27T23:20:25.085Z,54.10
2017-05-27T23:22:51.997Z,54.70
2017-05-27T23:25:18.932Z,54.70
2017-05-27T23:27:46.201Z,55.30
2017-05-27T23:30:13.127Z,55.60
2017-05-27T23:32:40.045Z,55.40
2017-05-27T23:35:07.304Z,55.70
2017-05-27T23:37:34.216Z,55.00
2017-05-27T23:40:01.130Z,54.70
2017-05-27T23:42:28.480Z,55.60
2017-05-27T23:44:55.365Z,55.80
2017-05-27T23:47:22.260Z,55.60
2017-05-27T23:49:50.230Z,53.90
2017-05-27T23:52:17.147Z,54.40
2017-05-27T23:54:44.036Z,54.30
2017-05-27T23:57:11.333Z,55.10
2017-05-27T23:59:38.228Z,55.60
